Budd Lake, NJ (07828)

2:08 PM EDT on August 20, 2014 (GMT -0400)
Mt Olive Township | Change Station
CLOSE
Current Station
Personal Weather Station
Location: Budd Lake, NJ
Elevation: 1013 ft
Nearby Weather Stations

Elev 1013 ft 40.87 °N, 74.75 °W | Updated 47 minutes ago

Mostly Cloudy
Mostly Cloudy
79.4 °F
Feels Like 81 °F
N
0.0
Wind Variable Wind from South
Gusts 4.0 mph

Today
High -- | Low -- °F
--% Chance of Precip.
Yesterday
High -- | Low -- °F
Precip. -- in
6:13 AM 7:50 PM
Waning Crescent, 20% visible
Pressure 29.96 in
Visibility 10.0 miles
Clouds Mostly Cloudy 4900 ft
Heat Index 81 °F
Dew Point 66 °F
Humidity 63%
Rainfall 0.00 in
Snow Depth Not available.
UV 5 out of 12
Pollen 9.70 out of 12
Ozone Good
PM2.5 Good
Flu Activity Not available.
METAR KSMQ 201753Z AUTO 17004KT 10SM BKN049 28/17 A2996 RMK AO2 SLP143 T02830167 10294 20206 58016

More Conditions Fewer Conditions

Pressure 29.96 in
Visibility 10.0 miles
Clouds Mostly Cloudy 4900 ft
Heat Index 81 °F
Dew Point 66 °F
Humidity 63%
Rainfall 0.00 in
Snow Depth Not available.
UV 5 out of 12
Pollen 9.70 out of 12
Ozone Good
PM2.5 Good
Flu Activity Not available.
METAR KSMQ 201753Z AUTO 17004KT 10SM BKN049 28/17 A2996 RMK AO2 SLP143 T02830167 10294 20206 58016

More Conditions Fewer Conditions

10-Day Weather Forecast

Almanac

Astronomy

Aug. 20, 2014 Rise Set
Actual Time 6:13 AM EDT 7:50 PM EDT
Civil Twilight 5:44 AM EDT 8:19 PM EDT
Nautical Twilight 5:09 AM EDT 8:54 PM EDT
Astronomical Twilight 4:32 AM EDT 9:31 PM EDT
Moon 1:51 AM EDT 4:33 PM EDT
Length of Visible Light 14h 34m
Length of Day
13h 36m
Tomorrow will be 2m 29s shorter.
Waning Crescent, 20% of the Moon is Illuminated
Today
Waning Crescent
Aug 25
New
Sep 2
First Quarter
Sep 8
Full
Sep 15
Last Quarter

Today's Extremes

State Highs State Lows

Community

WunderPhotos

Upload Photos

1,745,702 photos uploaded!

WunderBlogs® & News

Nearby

Air Quality

  Air Quality AQ Index Pollutant
Yesterday Good
OZONE
Yesterday Good
PM2.5
Current Good
OZONE
Current Good
PM2.5
Wednesday Moderate
OZONE
Wednesday Good
PM2.5

Snow Depth

Station Depth Elevation
No new snow has been reported.

Earthquake Activity

City Distance Mag. Time & Date
No recent earthquake activity has been reported nearby.
Minimum magnitude displayed is 2.5.

Coastal Water Temperatures

Place Temperature
No Stations Reporting

Nearby Weather Stations